»·PEaware :: N54222 KSAN-KCNO

N54222 :: KSAN-KCNO

FLIGHT INFORMATION

Flight Status: Arrived
Operator: Privately registered:
United States
More flights under this callsign
Pilot: Peter H. (12565)
Aircraft: CESSNA 172 SKYHAWK
(C172)
More flights by this aircraft type
Origin: KSAN San Diego Intl-Lindbergh
United States
Destination: KCNO Chino
United States
More flights between these airports :: More routes between these airports
Route: +
File this flight plan on PilotEdge
Remarks:
Altitude:
(Current/Filed)
8,500ft
Speed:
(Current/Filed)
0kts
Departed: 22-Nov-17 03:15 PM
Arrived: 22-Nov-17 04:10 PM
Distance/Time
Traveled:
78nm/0:55
Distance/Time
To Go:
Arrived

Flight Plot

Page will automatically refresh every two minutes.


Map Options




Map Legend


Flown Route
Filed Route
Departure Airport
Arrival Airport
Navaid (VOR, NDB)
Fix

Horizontal Profiles

Position Reports

Time Latitude Longitude Heading Altitude Ground
Speed
22-Nov-17 15:14 32.736531 -117.184982 354 17ft 0kts
22-Nov-17 15:15 32.736531 -117.184982 354 17ft 0kts
22-Nov-17 15:16 32.735438 -117.184989 179 17ft 6kts
22-Nov-17 15:17 32.735084 -117.184736 101 17ft 5kts
22-Nov-17 15:18 32.733253 -117.183254 111 17ft 18kts
22-Nov-17 15:19 32.731686 -117.177203 105 20ft 22kts
22-Nov-17 15:20 32.731234 -117.180182 284 20ft 67kts
22-Nov-17 15:21 32.741701 -117.203534 332 592ft 93kts
22-Nov-17 15:22 32.764211 -117.215936 332 1295ft 92kts
22-Nov-17 15:23 32.787193 -117.229791 333 1899ft 96kts
22-Nov-17 15:24 32.813711 -117.243542 346 1967ft 114kts
22-Nov-17 15:25 32.843738 -117.248385 357 1697ft 113kts
22-Nov-17 15:26 32.873799 -117.249952 356 1504ft 112kts
22-Nov-17 15:27 32.904075 -117.252138 355 1714ft 101kts
22-Nov-17 15:28 32.931713 -117.255179 351 1849ft 110kts
22-Nov-17 15:29 32.958883 -117.263888 336 2279ft 99kts
22-Nov-17 15:30 32.985816 -117.271208 347 2813ft 100kts
22-Nov-17 15:31 33.013030 -117.278513 343 3279ft 103kts
22-Nov-17 15:32 33.039593 -117.289739 340 3762ft 101kts
22-Nov-17 15:33 33.065941 -117.301996 343 4205ft 102kts
22-Nov-17 15:34 33.092798 -117.309578 349 4725ft 95kts
22-Nov-17 15:35 33.117339 -117.317875 343 5187ft 93kts
22-Nov-17 15:36 33.141954 -117.326175 338 5704ft 86kts
22-Nov-17 15:37 33.164173 -117.337035 339 6192ft 88kts
22-Nov-17 15:38 33.186180 -117.346740 344 6461ft 99kts
22-Nov-17 15:39 33.212141 -117.354693 345 6555ft 111kts
22-Nov-17 15:40 33.235834 -117.363191 342 6524ft 110kts
22-Nov-17 15:41 33.262867 -117.372857 347 6521ft 108kts
22-Nov-17 15:42 33.286244 -117.364045 50 6640ft 101kts
22-Nov-17 15:43 33.293872 -117.334438 86 6583ft 107kts
22-Nov-17 15:44 33.292014 -117.303242 93 6582ft 108kts
22-Nov-17 15:45 33.291192 -117.272380 75 6605ft 107kts
22-Nov-17 15:46 33.311370 -117.254035 20 6660ft 107kts
22-Nov-17 15:47 33.337859 -117.246862 7 6569ft 117kts
22-Nov-17 15:48 33.367069 -117.242936 7 6450ft 116kts
22-Nov-17 15:49 33.395890 -117.243716 349 6477ft 110kts
22-Nov-17 15:50 33.424776 -117.255792 339 6463ft 112kts
22-Nov-17 15:51 33.453299 -117.268951 320 6407ft 113kts
22-Nov-17 15:52 33.478703 -117.288928 332 6323ft 111kts
22-Nov-17 15:53 33.504333 -117.303769 332 6374ft 105kts
22-Nov-17 15:54 33.530332 -117.318797 337 6360ft 107kts
22-Nov-17 15:55 33.556932 -117.333106 334 6333ft 109kts
22-Nov-17 15:56 33.583368 -117.347554 337 6321ft 109kts
22-Nov-17 15:57 33.609499 -117.362329 337 6392ft 101kts
22-Nov-17 15:58 33.634132 -117.377687 322 6362ft 109kts
22-Nov-17 15:59 33.657116 -117.396736 325 6346ft 110kts
22-Nov-17 16:00 33.682475 -117.414709 335 6279ft 110kts
22-Nov-17 16:01 33.703931 -117.425298 338 6161ft 113kts
22-Nov-17 16:02 33.729668 -117.440640 325 6051ft 112kts
22-Nov-17 16:03 33.754101 -117.459605 327 5809ft 117kts
22-Nov-17 16:04 33.779541 -117.482516 328 5480ft 114kts
22-Nov-17 16:05 33.803190 -117.501729 325 5297ft 114kts
22-Nov-17 16:06 33.824430 -117.520737 299 5247ft 104kts
22-Nov-17 16:07 33.845442 -117.541043 322 5004ft 112kts
22-Nov-17 16:08 33.868362 -117.562900 328 4467ft 131kts
22-Nov-17 16:09 33.892659 -117.581377 332 3978ft 117kts
22-Nov-17 16:10 33.915593 -117.600038 339 3065ft 121kts
22-Nov-17 16:11 33.940736 -117.610793 333 2068ft 108kts
22-Nov-17 16:12 33.956150 -117.631530 297 1561ft 70kts
22-Nov-17 16:13 33.960541 -117.651981 297 1499ft 70kts
22-Nov-17 16:14 33.972863 -117.649263 59 794ft 79kts
22-Nov-17 16:15 33.974569 -117.639041 46 622ft 0kts
22-Nov-17 16:16 33.975243 -117.638209 49 625ft 15kts
22-Nov-17 16:17 33.977158 -117.636381 14 633ft 0kts

Navigation Log

Ident Type
1. KSAN Airport
2. KCNO Airport